sensor_id;sensor_type;location;lat;lon;timestamp;pressure;altitude;pressure_sealevel;temperature;humidity
55187;BME280;55457;52.002;5.464;2023-09-07T00:01:44;101813.88;;;24.67;67.59
55187;BME280;55457;52.002;5.464;2023-09-07T00:04:10;101806.78;;;24.66;67.61
55187;BME280;55457;52.002;5.464;2023-09-07T00:06:36;101813.06;;;24.67;67.77
55187;BME280;55457;52.002;5.464;2023-09-07T00:09:03;101798.59;;;24.66;67.63
55187;BME280;55457;52.002;5.464;2023-09-07T00:11:29;101799.69;;;24.65;67.45
55187;BME280;55457;52.002;5.464;2023-09-07T00:13:54;101805.97;;;24.66;67.56
55187;BME280;55457;52.002;5.464;2023-09-07T00:16:19;101787.69;;;24.66;67.51
55187;BME280;55457;52.002;5.464;2023-09-07T00:18:45;101788.78;;;24.65;67.64
55187;BME280;55457;52.002;5.464;2023-09-07T00:21:10;101792.59;;;24.64;67.39
55187;BME280;55457;52.002;5.464;2023-09-07T00:23:36;101787.13;;;24.64;67.50
55187;BME280;55457;52.002;5.464;2023-09-07T00:26:01;101786.06;;;24.65;67.37
55187;BME280;55457;52.002;5.464;2023-09-07T00:28:26;101784.41;;;24.64;67.56
55187;BME280;55457;52.002;5.464;2023-09-07T00:30:52;101785.25;;;24.65;67.59
55187;BME280;55457;52.002;5.464;2023-09-07T00:33:17;101786.06;;;24.65;67.52
55187;BME280;55457;52.002;5.464;2023-09-07T00:35:42;101783.34;;;24.65;67.37
55187;BME280;55457;52.002;5.464;2023-09-07T00:38:08;101787.13;;;24.64;67.44
55187;BME280;55457;52.002;5.464;2023-09-07T00:40:34;101783.56;;;24.64;67.64
55187;BME280;55457;52.002;5.464;2023-09-07T00:42:59;101783.34;;;24.65;67.50
55187;BME280;55457;52.002;5.464;2023-09-07T00:45:25;101786.28;;;24.64;67.58
55187;BME280;55457;52.002;5.464;2023-09-07T00:47:51;101784.41;;;24.64;67.44
55187;BME280;55457;52.002;5.464;2023-09-07T00:50:16;101785.47;;;24.63;67.51
55187;BME280;55457;52.002;5.464;2023-09-07T00:52:42;101780.00;;;24.63;67.59
55187;BME280;55457;52.002;5.464;2023-09-07T00:55:09;101780.00;;;24.63;67.49
55187;BME280;55457;52.002;5.464;2023-09-07T00:57:35;101779.19;;;24.63;67.43
55187;BME280;55457;52.002;5.464;2023-09-07T01:00:03;101773.75;;;24.63;67.47
55187;BME280;55457;52.002;5.464;2023-09-07T01:02:29;101779.19;;;24.63;67.49
55187;BME280;55457;52.002;5.464;2023-09-07T01:04:55;101772.91;;;24.62;67.38
55187;BME280;55457;52.002;5.464;2023-09-07T01:07:24;101778.38;;;24.62;67.47
55187;BME280;55457;52.002;5.464;2023-09-07T01:09:54;101773.75;;;24.63;67.43
55187;BME280;55457;52.002;5.464;2023-09-07T01:12:21;101771.28;;;24.61;67.38
55187;BME280;55457;52.002;5.464;2023-09-07T01:14:46;101772.09;;;24.62;67.34
55187;BME280;55457;52.002;5.464;2023-09-07T01:17:12;101772.09;;;24.62;67.39
55187;BME280;55457;52.002;5.464;2023-09-07T01:19:39;101770.44;;;24.61;67.49
55187;BME280;55457;52.002;5.464;2023-09-07T01:22:06;101771.28;;;24.61;67.24
55187;BME280;55457;52.002;5.464;2023-09-07T01:24:33;101769.63;;;24.60;67.41
55187;BME280;55457;52.002;5.464;2023-09-07T01:27:01;101769.38;;;24.62;67.26
55187;BME280;55457;52.002;5.464;2023-09-07T01:29:28;101769.63;;;24.60;67.40
55187;BME280;55457;52.002;5.464;2023-09-07T01:31:54;101761.44;;;24.60;67.43
55187;BME280;55457;52.002;5.464;2023-09-07T01:34:20;101767.97;;;24.59;67.41
55187;BME280;55457;52.002;5.464;2023-09-07T01:36:45;101766.09;;;24.60;67.29
55187;BME280;55457;52.002;5.464;2023-09-07T01:39:11;101759.81;;;24.59;67.46
55187;BME280;55457;52.002;5.464;2023-09-07T01:41:37;101768.81;;;24.60;67.42
55187;BME280;55457;52.002;5.464;2023-09-07T01:44:02;101766.91;;;24.60;67.41
55187;BME280;55457;52.002;5.464;2023-09-07T01:46:28;101757.09;;;24.59;67.33
55187;BME280;55457;52.002;5.464;2023-09-07T01:48:53;101758.97;;;24.59;67.35
55187;BME280;55457;52.002;5.464;2023-09-07T01:51:19;101757.09;;;24.59;67.39
55187;BME280;55457;52.002;5.464;2023-09-07T01:53:47;101751.63;;;24.59;67.12
55187;BME280;55457;52.002;5.464;2023-09-07T01:56:13;101749.97;;;24.58;67.26
55187;BME280;55457;52.002;5.464;2023-09-07T01:58:39;101754.34;;;24.59;67.53
55187;BME280;55457;52.002;5.464;2023-09-07T02:01:06;101749.97;;;24.58;67.29
55187;BME280;55457;52.002;5.464;2023-09-07T02:03:31;101751.63;;;24.59;67.28
55187;BME280;55457;52.002;5.464;2023-09-07T02:05:56;101753.75;;;24.57;67.48
55187;BME280;55457;52.002;5.464;2023-09-07T02:08:22;101758.13;;;24.58;67.28
55187;BME280;55457;52.002;5.464;2023-09-07T02:10:47;101758.13;;;24.58;67.17
55187;BME280;55457;52.002;5.464;2023-09-07T02:13:13;101755.66;;;24.57;67.23
55187;BME280;55457;52.002;5.464;2023-09-07T02:15:38;101755.41;;;24.58;67.17
55187;BME280;55457;52.002;5.464;2023-09-07T02:18:05;101760.84;;;24.58;67.35
55187;BME280;55457;52.002;5.464;2023-09-07T02:20:31;101758.41;;;24.57;67.07
55187;BME280;55457;52.002;5.464;2023-09-07T02:22:57;101766.31;;;24.58;67.37
55187;BME280;55457;52.002;5.464;2023-09-07T02:25:22;101760.84;;;24.58;67.17
55187;BME280;55457;52.002;5.464;2023-09-07T02:27:48;101753.75;;;24.57;67.16
55187;BME280;55457;52.002;5.464;2023-09-07T02:30:13;101756.50;;;24.57;67.05
55187;BME280;55457;52.002;5.464;2023-09-07T02:32:41;101758.41;;;24.57;67.07
55187;BME280;55457;52.002;5.464;2023-09-07T02:35:07;101754.84;;;24.56;66.97
55187;BME280;55457;52.002;5.464;2023-09-07T02:37:33;101766.31;;;24.58;66.86
55187;BME280;55457;52.002;5.464;2023-09-07T02:39:58;101759.22;;;24.57;66.87
55187;BME280;55457;52.002;5.464;2023-09-07T02:42:24;101759.22;;;24.57;66.79
55187;BME280;55457;52.002;5.464;2023-09-07T02:44:49;101760.28;;;24.56;66.86
55187;BME280;55457;52.002;5.464;2023-09-07T02:47:15;101761.38;;;24.55;66.78
55187;BME280;55457;52.002;5.464;2023-09-07T02:49:41;101763.03;;;24.56;66.77
55187;BME280;55457;52.002;5.464;2023-09-07T02:52:07;101763.03;;;24.56;66.71
55187;BME280;55457;52.002;5.464;2023-09-07T02:54:32;101756.75;;;24.56;66.75
55187;BME280;55457;52.002;5.464;2023-09-07T02:56:58;101768.47;;;24.56;66.75
55187;BME280;55457;52.002;5.464;2023-09-07T02:59:23;101764.09;;;24.55;66.71
55187;BME280;55457;52.002;5.464;2023-09-07T03:01:49;101769.56;;;24.55;66.97
55187;BME280;55457;52.002;5.464;2023-09-07T03:04:14;101760.56;;;24.55;66.69
55187;BME280;55457;52.002;5.464;2023-09-07T03:06:39;101764.09;;;24.55;66.63
55187;BME280;55457;52.002;5.464;2023-09-07T03:09:05;101761.38;;;24.55;66.54
55187;BME280;55457;52.002;5.464;2023-09-07T03:11:34;101759.72;;;24.54;66.82
55187;BME280;55457;52.002;5.464;2023-09-07T03:14:00;101758.66;;;24.55;66.61
55187;BME280;55457;52.002;5.464;2023-09-07T03:16:25;101766.00;;;24.55;66.65
55187;BME280;55457;52.002;5.464;2023-09-07T03:18:51;101762.19;;;24.56;66.62
55187;BME280;55457;52.002;5.464;2023-09-07T03:21:17;101755.09;;;24.55;66.76
55187;BME280;55457;52.002;5.464;2023-09-07T03:23:42;101759.72;;;24.54;66.58
55187;BME280;55457;52.002;5.464;2023-09-07T03:26:10;101758.91;;;24.54;66.66
55187;BME280;55457;52.002;5.464;2023-09-07T03:28:35;101758.91;;;24.54;66.43
55187;BME280;55457;52.002;5.464;2023-09-07T03:31:01;101758.06;;;24.53;66.60
55187;BME280;55457;52.002;5.464;2023-09-07T03:33:26;101765.19;;;24.54;66.48
55187;BME280;55457;52.002;5.464;2023-09-07T03:35:52;101762.69;;;24.53;66.51
55187;BME280;55457;52.002;5.464;2023-09-07T03:38:17;101756.41;;;24.52;66.51
55187;BME280;55457;52.002;5.464;2023-09-07T03:40:43;101756.41;;;24.52;66.47
55187;BME280;55457;52.002;5.464;2023-09-07T03:43:09;101758.91;;;24.54;66.50
55187;BME280;55457;52.002;5.464;2023-09-07T03:45:34;101758.91;;;24.54;66.41
55187;BME280;55457;52.002;5.464;2023-09-07T03:47:59;101756.41;;;24.52;66.30
55187;BME280;55457;52.002;5.464;2023-09-07T03:50:25;101756.41;;;24.52;66.32
55187;BME280;55457;52.002;5.464;2023-09-07T03:52:50;101757.25;;;24.53;66.33
55187;BME280;55457;52.002;5.464;2023-09-07T03:55:16;101759.13;;;24.52;66.36
55187;BME280;55457;52.002;5.464;2023-09-07T03:57:41;101761.88;;;24.52;66.23
55187;BME280;55457;52.002;5.464;2023-09-07T04:00:07;101761.88;;;24.52;66.15
55187;BME280;55457;52.002;5.464;2023-09-07T04:02:33;101759.13;;;24.52;66.25
55187;BME280;55457;52.002;5.464;2023-09-07T04:04:59;101757.25;;;24.53;66.25
55187;BME280;55457;52.002;5.464;2023-09-07T04:07:26;101753.13;;;24.50;66.27
55187;BME280;55457;52.002;5.464;2023-09-07T04:09:52;101752.31;;;24.50;66.40
55187;BME280;55457;52.002;5.464;2023-09-07T04:12:17;101759.41;;;24.51;66.23
55187;BME280;55457;52.002;5.464;2023-09-07T04:14:43;101757.50;;;24.51;66.43
55187;BME280;55457;52.002;5.464;2023-09-07T04:17:09;101761.31;;;24.50;66.41
55187;BME280;55457;52.002;5.464;2023-09-07T04:19:35;101758.56;;;24.50;66.14
55187;BME280;55457;52.002;5.464;2023-09-07T04:22:01;101753.38;;;24.49;66.38
55187;BME280;55457;52.002;5.464;2023-09-07T04:24:26;101753.13;;;24.50;66.17
55187;BME280;55457;52.002;5.464;2023-09-07T04:26:59;101761.31;;;24.50;66.17
55187;BME280;55457;52.002;5.464;2023-09-07T04:29:26;101754.19;;;24.49;66.01
55187;BME280;55457;52.002;5.464;2023-09-07T04:31:51;101753.13;;;24.50;66.14
55187;BME280;55457;52.002;5.464;2023-09-07T04:34:17;101763.19;;;24.50;66.14
55187;BME280;55457;52.002;5.464;2023-09-07T04:36:42;101758.56;;;24.50;65.96
55187;BME280;55457;52.002;5.464;2023-09-07T04:39:07;101763.19;;;24.50;66.10
55187;BME280;55457;52.002;5.464;2023-09-07T04:41:33;101758.84;;;24.49;66.09
55187;BME280;55457;52.002;5.464;2023-09-07T04:43:58;101760.47;;;24.50;66.08
55187;BME280;55457;52.002;5.464;2023-09-07T04:46:24;101760.47;;;24.50;65.92
55187;BME280;55457;52.002;5.464;2023-09-07T04:48:49;101766.16;;;24.48;65.92
55187;BME280;55457;52.002;5.464;2023-09-07T04:51:15;101772.47;;;24.49;65.91
55187;BME280;55457;52.002;5.464;2023-09-07T04:53:40;101765.09;;;24.49;65.96
55187;BME280;55457;52.002;5.464;2023-09-07T04:56:07;101763.44;;;24.48;65.99
55187;BME280;55457;52.002;5.464;2023-09-07T04:58:33;101771.59;;;24.48;65.85
55187;BME280;55457;52.002;5.464;2023-09-07T05:01:06;101768.88;;;24.48;65.86
55187;BME280;55457;52.002;5.464;2023-09-07T05:03:31;101766.16;;;24.48;65.82
55187;BME280;55457;52.002;5.464;2023-09-07T05:05:58;101771.59;;;24.48;65.82
55187;BME280;55457;52.002;5.464;2023-09-07T05:08:23;101770.78;;;24.47;66.03
55187;BME280;55457;52.002;5.464;2023-09-07T05:10:56;101767.22;;;24.47;65.76
55187;BME280;55457;52.002;5.464;2023-09-07T05:13:23;101771.59;;;24.48;65.96
55187;BME280;55457;52.002;5.464;2023-09-07T05:15:50;101777.31;;;24.46;65.88
55187;BME280;55457;52.002;5.464;2023-09-07T05:18:16;101776.50;;;24.46;65.91
55187;BME280;55457;52.002;5.464;2023-09-07T05:20:42;101786.31;;;24.47;65.88
55187;BME280;55457;52.002;5.464;2023-09-07T05:23:11;101787.13;;;24.47;65.89
55187;BME280;55457;52.002;5.464;2023-09-07T05:25:46;101784.41;;;24.47;65.98
55187;BME280;55457;52.002;5.464;2023-09-07T05:28:13;101787.13;;;24.47;65.79
55187;BME280;55457;52.002;5.464;2023-09-07T05:30:38;101787.13;;;24.47;66.02
55187;BME280;55457;52.002;5.464;2023-09-07T05:33:04;101790.69;;;24.48;65.73
55187;BME280;55457;52.002;5.464;2023-09-07T05:35:29;101792.59;;;24.47;65.96
55187;BME280;55457;52.002;5.464;2023-09-07T05:37:57;101793.41;;;24.48;65.80
55187;BME280;55457;52.002;5.464;2023-09-07T05:40:23;101793.41;;;24.48;65.87
55187;BME280;55457;52.002;5.464;2023-09-07T05:42:48;101794.47;;;24.47;65.65
55187;BME280;55457;52.002;5.464;2023-09-07T05:45:14;101800.53;;;24.49;65.74
55187;BME280;55457;52.002;5.464;2023-09-07T05:47:39;101795.31;;;24.47;65.67
55187;BME280;55457;52.002;5.464;2023-09-07T05:50:04;101791.75;;;24.47;65.71
55187;BME280;55457;52.002;5.464;2023-09-07T05:52:30;101792.59;;;24.47;65.59
55187;BME280;55457;52.002;5.464;2023-09-07T05:54:55;101797.81;;;24.49;65.58
55187;BME280;55457;52.002;5.464;2023-09-07T05:57:21;101798.84;;;24.48;65.62
55187;BME280;55457;52.002;5.464;2023-09-07T05:59:46;101805.16;;;24.49;65.64
55187;BME280;55457;52.002;5.464;2023-09-07T06:02:11;101805.16;;;24.49;65.65
55187;BME280;55457;52.002;5.464;2023-09-07T06:04:37;101797.22;;;24.47;65.73
55187;BME280;55457;52.002;5.464;2023-09-07T06:07:02;101805.97;;;24.49;65.68
55187;BME280;55457;52.002;5.464;2023-09-07T06:09:28;101805.97;;;24.49;65.61
55187;BME280;55457;52.002;5.464;2023-09-07T06:11:54;101811.44;;;24.49;65.55
55187;BME280;55457;52.002;5.464;2023-09-07T06:14:19;101811.44;;;24.49;65.59
55187;BME280;55457;52.002;5.464;2023-09-07T06:16:45;101812.47;;;24.48;65.53
55187;BME280;55457;52.002;5.464;2023-09-07T06:19:10;101815.19;;;24.48;65.55
55187;BME280;55457;52.002;5.464;2023-09-07T06:21:36;101816.06;;;24.49;65.67
55187;BME280;55457;52.002;5.464;2023-09-07T06:24:01;101826.09;;;24.48;65.59
55187;BME280;55457;52.002;5.464;2023-09-07T06:26:26;101820.66;;;24.48;65.38
55187;BME280;55457;52.002;5.464;2023-09-07T06:28:52;101822.31;;;24.49;65.44
55187;BME280;55457;52.002;5.464;2023-09-07T06:31:17;101823.97;;;24.50;65.44
55187;BME280;55457;52.002;5.464;2023-09-07T06:33:42;101823.38;;;24.48;65.61
55187;BME280;55457;52.002;5.464;2023-09-07T06:36:08;101824.22;;;24.49;65.48
55187;BME280;55457;52.002;5.464;2023-09-07T06:38:33;101821.50;;;24.49;65.39
55187;BME280;55457;52.002;5.464;2023-09-07T06:40:58;101819.59;;;24.49;65.46
55187;BME280;55457;52.002;5.464;2023-09-07T06:43:24;101825.06;;;24.49;65.34
55187;BME280;55457;52.002;5.464;2023-09-07T06:45:49;101823.16;;;24.50;65.50
55187;BME280;55457;52.002;5.464;2023-09-07T06:48:14;101832.72;;;24.52;65.77
55187;BME280;55457;52.002;5.464;2023-09-07T06:50:40;101832.72;;;24.52;66.78
55187;BME280;55457;52.002;5.464;2023-09-07T06:53:05;101830.59;;;24.54;68.94
55187;BME280;55457;52.002;5.464;2023-09-07T06:55:30;101837.41;;;24.57;70.43
55187;BME280;55457;52.002;5.464;2023-09-07T06:57:56;101831.97;;;24.57;69.84
55187;BME280;55457;52.002;5.464;2023-09-07T07:00:22;101833.88;;;24.56;68.69
55187;BME280;55457;52.002;5.464;2023-09-07T07:02:48;101833.88;;;24.56;68.41
55187;BME280;55457;52.002;5.464;2023-09-07T07:05:13;101833.88;;;24.56;68.21
55187;BME280;55457;52.002;5.464;2023-09-07T07:07:39;101834.69;;;24.57;67.90
55187;BME280;55457;52.002;5.464;2023-09-07T07:10:05;101840.97;;;24.57;67.61
55187;BME280;55457;52.002;5.464;2023-09-07T07:12:30;101836.59;;;24.56;67.15
55187;BME280;55457;52.002;5.464;2023-09-07T07:15:00;101846.41;;;24.57;67.65
55187;BME280;55457;52.002;5.464;2023-09-07T07:17:25;101840.97;;;24.57;67.41
55187;BME280;55457;52.002;5.464;2023-09-07T07:19:50;101842.63;;;24.58;67.43
55187;BME280;55457;52.002;5.464;2023-09-07T07:22:16;101842.63;;;24.58;67.41
55187;BME280;55457;52.002;5.464;2023-09-07T07:24:41;101832.53;;;24.59;67.49
55187;BME280;55457;52.002;5.464;2023-09-07T07:27:07;101841.56;;;24.59;67.15
55187;BME280;55457;52.002;5.464;2023-09-07T07:29:32;101840.50;;;24.60;67.32
55187;BME280;55457;52.002;5.464;2023-09-07T07:31:57;101840.50;;;24.60;67.15
55187;BME280;55457;52.002;5.464;2023-09-07T07:34:23;101839.41;;;24.61;67.19
55187;BME280;55457;52.002;5.464;2023-09-07T07:36:48;101843.78;;;24.62;66.76
55187;BME280;55457;52.002;5.464;2023-09-07T07:39:13;101841.88;;;24.63;66.76
55187;BME280;55457;52.002;5.464;2023-09-07T07:41:41;101836.19;;;24.64;66.90
55187;BME280;55457;52.002;5.464;2023-09-07T07:44:06;101828.84;;;24.65;66.74
55187;BME280;55457;52.002;5.464;2023-09-07T07:46:31;101832.41;;;24.65;66.50
55187;BME280;55457;52.002;5.464;2023-09-07T07:48:57;101833.78;;;24.68;66.41
55187;BME280;55457;52.002;5.464;2023-09-07T07:51:22;101829.16;;;24.68;66.50
55187;BME280;55457;52.002;5.464;2023-09-07T07:53:47;101828.09;;;24.69;66.27
55187;BME280;55457;52.002;5.464;2023-09-07T07:56:18;101827.59;;;24.72;66.27
55187;BME280;55457;52.002;5.464;2023-09-07T07:58:44;101825.69;;;24.73;66.23
55187;BME280;55457;52.002;5.464;2023-09-07T08:01:16;101825.47;;;24.75;66.01
55187;BME280;55457;52.002;5.464;2023-09-07T08:03:42;101827.94;;;24.76;66.22
55187;BME280;55457;52.002;5.464;2023-09-07T08:06:08;101830.38;;;24.78;66.07
55187;BME280;55457;52.002;5.464;2023-09-07T08:08:34;101830.13;;;24.79;66.08
55187;BME280;55457;52.002;5.464;2023-09-07T08:10:59;101817.91;;;24.82;66.14
55187;BME280;55457;52.002;5.464;2023-09-07T08:13:30;101813.28;;;24.82;66.21
55187;BME280;55457;52.002;5.464;2023-09-07T08:15:55;101806.75;;;24.83;66.17
55187;BME280;55457;52.002;5.464;2023-09-07T08:18:20;101811.38;;;24.83;66.07
55187;BME280;55457;52.002;5.464;2023-09-07T08:20:46;101811.38;;;24.83;66.25
55187;BME280;55457;52.002;5.464;2023-09-07T08:23:11;101803.78;;;24.85;65.90
55187;BME280;55457;52.002;5.464;2023-09-07T08:25:36;101807.09;;;24.87;66.01
55187;BME280;55457;52.002;5.464;2023-09-07T08:28:04;101806.00;;;24.88;65.88
55187;BME280;55457;52.002;5.464;2023-09-07T08:30:31;101813.09;;;24.89;65.94
55187;BME280;55457;52.002;5.464;2023-09-07T08:32:56;101820.78;;;24.92;65.90
55187;BME280;55457;52.002;5.464;2023-09-07T08:35:21;101806.09;;;24.93;66.05
55187;BME280;55457;52.002;5.464;2023-09-07T08:37:52;101802.28;;;24.94;65.76
55187;BME280;55457;52.002;5.464;2023-09-07T08:40:18;101801.78;;;24.97;65.74
55187;BME280;55457;52.002;5.464;2023-09-07T08:42:44;101806.97;;;24.98;65.55
55187;BME280;55457;52.002;5.464;2023-09-07T08:45:11;101795.56;;;25.02;65.46
55187;BME280;55457;52.002;5.464;2023-09-07T08:47:38;101803.50;;;25.03;65.20
55187;BME280;55457;52.002;5.464;2023-09-07T08:50:05;101800.31;;;25.06;65.30
55187;BME280;55457;52.002;5.464;2023-09-07T08:52:34;101793.50;;;25.09;65.07
55187;BME280;55457;52.002;5.464;2023-09-07T08:55:01;101800.38;;;25.11;65.18
55187;BME280;55457;52.002;5.464;2023-09-07T08:57:30;101797.13;;;25.14;64.97
55187;BME280;55457;52.002;5.464;2023-09-07T08:59:56;101792.00;;;25.18;64.80
55187;BME280;55457;52.002;5.464;2023-09-07T09:02:21;101792.56;;;25.20;64.65
55187;BME280;55457;52.002;5.464;2023-09-07T09:04:47;101790.97;;;25.24;64.92
55187;BME280;55457;52.002;5.464;2023-09-07T09:07:12;101786.91;;;25.27;64.88
55187;BME280;55457;52.002;5.464;2023-09-07T09:09:38;101792.69;;;25.30;64.55
55187;BME280;55457;52.002;5.464;2023-09-07T09:12:11;101783.19;;;25.33;64.70
55187;BME280;55457;52.002;5.464;2023-09-07T09:14:36;101781.56;;;25.37;64.57
55187;BME280;55457;52.002;5.464;2023-09-07T09:17:02;101783.81;;;25.40;64.25
55187;BME280;55457;52.002;5.464;2023-09-07T09:19:34;101781.41;;;25.43;64.33
55187;BME280;55457;52.002;5.464;2023-09-07T09:21:59;101785.50;;;25.46;64.18
55187;BME280;55457;52.002;5.464;2023-09-07T09:24:25;101788.31;;;25.51;63.91
55187;BME280;55457;52.002;5.464;2023-09-07T09:26:50;101781.25;;;25.55;63.89
55187;BME280;55457;52.002;5.464;2023-09-07T09:29:16;101797.13;;;25.58;63.85
55187;BME280;55457;52.002;5.464;2023-09-07T09:31:41;101795.78;;;25.61;63.74
55187;BME280;55457;52.002;5.464;2023-09-07T09:34:08;101793.13;;;25.66;63.79
55187;BME280;55457;52.002;5.464;2023-09-07T09:36:36;101793.44;;;25.69;63.35
55187;BME280;55457;52.002;5.464;2023-09-07T09:39:02;101789.09;;;25.73;63.42
55187;BME280;55457;52.002;5.464;2023-09-07T09:41:31;101790.25;;;25.77;63.27
55187;BME280;55457;52.002;5.464;2023-09-07T09:43:59;101791.41;;;25.82;63.00
55187;BME280;55457;52.002;5.464;2023-09-07T09:46:26;101794.19;;;25.87;62.92
55187;BME280;55457;52.002;5.464;2023-09-07T09:48:54;101782.75;;;25.90;62.87
55187;BME280;55457;52.002;5.464;2023-09-07T09:51:19;101789.31;;;25.94;63.01
55187;BME280;55457;52.002;5.464;2023-09-07T09:53:45;101786.63;;;25.99;62.79
55187;BME280;55457;52.002;5.464;2023-09-07T09:56:12;101779.84;;;26.01;62.52
55187;BME280;55457;52.002;5.464;2023-09-07T09:58:38;101778.25;;;26.06;62.60
55187;BME280;55457;52.002;5.464;2023-09-07T10:01:04;101777.50;;;26.10;62.46
55187;BME280;55457;52.002;5.464;2023-09-07T10:03:57;101774.75;;;26.15;62.10
55187;BME280;55457;52.002;5.464;2023-09-07T10:06:28;101775.06;;;26.19;61.94
55187;BME280;55457;52.002;5.464;2023-09-07T10:08:55;101773.75;;;26.21;61.85
55187;BME280;55457;52.002;5.464;2023-09-07T10:11:33;101770.97;;;26.16;61.74
55187;BME280;55457;52.002;5.464;2023-09-07T10:14:00;101768.19;;;26.11;61.84
55187;BME280;55457;52.002;5.464;2023-09-07T10:16:26;101774.44;;;26.07;62.02
55187;BME280;55457;52.002;5.464;2023-09-07T10:18:52;101772.22;;;26.03;62.52
55187;BME280;55457;52.002;5.464;2023-09-07T10:21:18;101764.78;;;25.99;62.36
55187;BME280;55457;52.002;5.464;2023-09-07T10:23:44;101764.75;;;25.94;62.32
55187;BME280;55457;52.002;5.464;2023-09-07T10:26:15;101773.47;;;25.91;62.61
55187;BME280;55457;52.002;5.464;2023-09-07T10:28:41;101768.50;;;25.88;62.62
55187;BME280;55457;52.002;5.464;2023-09-07T10:31:16;101764.41;;;25.85;62.84
55187;BME280;55457;52.002;5.464;2023-09-07T10:33:42;101760.28;;;25.83;62.81
55187;BME280;55457;52.002;5.464;2023-09-07T10:36:08;101762.44;;;25.81;63.20
55187;BME280;55457;52.002;5.464;2023-09-07T10:38:34;101764.59;;;25.79;63.39
55187;BME280;55457;52.002;5.464;2023-09-07T10:41:02;101762.41;;;25.75;63.42
55187;BME280;55457;52.002;5.464;2023-09-07T10:43:29;101749.84;;;25.74;63.27
55187;BME280;55457;52.002;5.464;2023-09-07T10:45:55;101750.31;;;25.71;63.47
55187;BME280;55457;52.002;5.464;2023-09-07T10:48:23;101762.31;;;25.70;63.66
55187;BME280;55457;52.002;5.464;2023-09-07T10:51:13;101751.66;;;25.69;63.51
55187;BME280;55457;52.002;5.464;2023-09-07T10:53:38;101759.00;;;25.68;63.61
55187;BME280;55457;52.002;5.464;2023-09-07T10:56:05;101748.63;;;25.65;63.63
55187;BME280;55457;52.002;5.464;2023-09-07T10:58:31;101752.44;;;25.64;63.54
55187;BME280;55457;52.002;5.464;2023-09-07T11:00:57;101758.13;;;25.63;63.57
55187;BME280;55457;52.002;5.464;2023-09-07T11:03:27;101757.31;;;25.62;63.48
55187;BME280;55457;52.002;5.464;2023-09-07T11:05:55;101747.47;;;25.61;63.70
55187;BME280;55457;52.002;5.464;2023-09-07T11:08:21;101743.09;;;25.60;63.60
55187;BME280;55457;52.002;5.464;2023-09-07T11:10:50;101745.84;;;25.60;63.63
55187;BME280;55457;52.002;5.464;2023-09-07T11:13:15;101751.28;;;25.60;63.83
55187;BME280;55457;52.002;5.464;2023-09-07T11:15:42;101738.72;;;25.59;63.85
55187;BME280;55457;52.002;5.464;2023-09-07T11:18:08;101735.41;;;25.57;64.10
55187;BME280;55457;52.002;5.464;2023-09-07T11:20:37;101732.69;;;25.57;64.13
55187;BME280;55457;52.002;5.464;2023-09-07T11:23:05;101732.13;;;25.55;64.09
55187;BME280;55457;52.002;5.464;2023-09-07T11:25:38;101726.66;;;25.55;64.08
55187;BME280;55457;52.002;5.464;2023-09-07T11:28:07;101728.84;;;25.53;64.34
55187;BME280;55457;52.002;5.464;2023-09-07T11:30:33;101726.94;;;25.54;64.38
55187;BME280;55457;52.002;5.464;2023-09-07T11:33:01;101728.84;;;25.53;64.54
55187;BME280;55457;52.002;5.464;2023-09-07T11:35:26;101726.34;;;25.51;64.26
55187;BME280;55457;52.002;5.464;2023-09-07T11:37:52;101726.63;;;25.50;64.33
55187;BME280;55457;52.002;5.464;2023-09-07T11:40:18;101724.72;;;25.50;64.27
55187;BME280;55457;52.002;5.464;2023-09-07T11:42:43;101715.16;;;25.48;64.38
55187;BME280;55457;52.002;5.464;2023-09-07T11:45:08;101716.78;;;25.49;64.26
55187;BME280;55457;52.002;5.464;2023-09-07T11:47:34;101709.69;;;25.48;64.43
55187;BME280;55457;52.002;5.464;2023-09-07T11:50:01;101708.00;;;25.47;64.36
55187;BME280;55457;52.002;5.464;2023-09-07T11:52:26;101713.47;;;25.47;64.46
55187;BME280;55457;52.002;5.464;2023-09-07T11:54:51;101709.09;;;25.46;64.32
55187;BME280;55457;52.002;5.464;2023-09-07T11:57:17;101706.38;;;25.46;64.55
55187;BME280;55457;52.002;5.464;2023-09-07T11:59:42;101709.09;;;25.46;64.28
55187;BME280;55457;52.002;5.464;2023-09-07T12:02:07;101703.09;;;25.44;64.63
55187;BME280;55457;52.002;5.464;2023-09-07T12:04:36;101708.53;;;25.44;64.37
55187;BME280;55457;52.002;5.464;2023-09-07T12:07:03;101704.72;;;25.45;64.43
55187;BME280;55457;52.002;5.464;2023-09-07T12:09:28;101707.47;;;25.45;64.51
55187;BME280;55457;52.002;5.464;2023-09-07T12:11:53;101703.91;;;25.44;64.39
55187;BME280;55457;52.002;5.464;2023-09-07T12:14:19;101702.00;;;25.45;64.38
55187;BME280;55457;52.002;5.464;2023-09-07T12:16:44;101700.09;;;25.45;64.22
55187;BME280;55457;52.002;5.464;2023-09-07T12:19:09;101697.63;;;25.44;64.33
55187;BME280;55457;52.002;5.464;2023-09-07T12:21:35;101691.63;;;25.47;64.22
55187;BME280;55457;52.002;5.464;2023-09-07T12:24:00;101690.00;;;25.46;64.53
55187;BME280;55457;52.002;5.464;2023-09-07T12:26:26;101691.63;;;25.47;64.44
55187;BME280;55457;52.002;5.464;2023-09-07T12:28:51;101693.31;;;25.48;64.41
55187;BME280;55457;52.002;5.464;2023-09-07T12:31:16;101684.28;;;25.47;64.34
55187;BME280;55457;52.002;5.464;2023-09-07T12:33:42;101687.84;;;25.48;64.31
55187;BME280;55457;52.002;5.464;2023-09-07T12:36:07;101684.03;;;25.49;64.33
55187;BME280;55457;52.002;5.464;2023-09-07T12:38:37;101689.50;;;25.49;64.36
55187;BME280;55457;52.002;5.464;2023-09-07T12:41:03;101681.03;;;25.50;64.11
55187;BME280;55457;52.002;5.464;2023-09-07T12:43:28;101685.19;;;25.53;63.90
55187;BME280;55457;52.002;5.464;2023-09-07T12:45:54;101689.78;;;25.52;63.97